aviador You're here:

OMAD Decoded Metar

ABU DHABI in UNITED ARAB EMIRATES
Report Time2017-07-26 06:00:00
UTC Time2017-07-26 06:34:14
Flight Rules vfr VFR
Wind170° at 05 kt
W.Decomp.*RWY 13: 3.9 kt HW 3.1 kt RCW
W.Rank170° ranks 35
Current wind is below 170° avg. (5.3)
Visibility8000 m
Phenomena:N/A
Clouds:N/A
Expected CloudBase > 8,800 ft AGL from Temp-Dew spread
CeilingNone
Temp40°C (ISA +25)
Dew Point18°C (28% RH)
Heat Index42.3°C
QNH0997 hPa
Density Alt3,632 ft
Elevation10 ft
Report Wrong Elevation
Raw Report
METAR OMAD 260600Z 17005KT 120V240 8000 NSC 40/18 Q0997 NOSIG=

Extra information for OMAD:More info

Metar Taf Metar & Taf Last 4 Metars F.Rules Stats Wind Profile Meteogram Temp Stats Airport Information Weather charts Add Link Nearby VenuesMetar ALERT Operation Metar Decoded Social comments